Forest Heights, Maryland
Current Conditions -  °F | °C
As of 5:52 AM on Tuesday 21 Oct 2014 (Local Time) from KDCA Reporting Station
Few Clouds Few Clouds  
Wind Chill: 56°   Ceiling: Unl
Heat Index: 56°   Visibility: 10mi
Dew Point: 48°   Wind: 3mph
Humidity: 75%   Direction: 220°SW
Pressure: 29.87"   Gusts: NA
Location:  38.8052°N, 76.9958°W
Report Text: KDCA 210952Z 22003KT 10SM FEW110 13/09 A2987 RMK AO2 SLP114 T01330089
Loading
Personal Weather Stations






























Interactive Weather Map
Tropical Storm Tracking
New forecast layout! Learn more

10-Day Weather Forecast

Advertisements
Track Severe Weather on mobile